Time;durP1;ratioP1;P1;durP2;ratioP2;P2;SDS_P1;SDS_P2;PMS_P1;PMS_P2;Temp;Humidity;BMP_temperature;BMP_pressure;BME280_temperature;BME280_humidity;BME280_pressure;Samples;Min_cycle;Max_cycle;Signal;HPM_P1;HPM_P2
2022/08/23 00:00:17;;;;;;;1999.90;999.90;;;16.60;69.80;;;;;;5155217;27;20047;-78
2022/08/23 00:06:41;;;;;;;1999.90;999.90;;;16.50;79.00;;;;;;5157177;27;20042;-78
2022/08/23 00:13:13;;;;;;;1999.90;999.90;;;16.50;82.60;;;;;;5155149;27;20049;-78
2022/08/23 00:19:36;;;;;;;1999.90;999.90;;;16.40;89.00;;;;;;5158898;27;20456;-78
2022/08/23 00:25:43;;;;;;;1989.20;999.90;;;16.40;90.10;;;;;;5158573;27;20042;-78
2022/08/23 00:32:03;;;;;;;1993.68;999.90;;;16.30;93.60;;;;;;5159008;27;20063;-78
2022/08/23 00:34:29;;;;;;;1999.90;999.90;;;16.30;97.80;;;;;;5140740;27;20047;-78
2022/08/23 00:36:55;;;;;;;1999.90;999.90;;;16.20;98.40;;;;;;5158757;27;20095;-78
2022/08/23 00:39:20;;;;;;;1999.90;999.90;;;16.20;99.90;;;;;;5158547;27;20493;-78
2022/08/23 00:41:48;;;;;;;1999.90;999.90;;;16.20;99.90;;;;;;5158841;27;20053;-78
2022/08/23 00:55:03;;;;;;;1999.90;999.90;;;16.00;99.90;;;;;;5052916;28;20032;-82
2022/08/23 00:57:30;;;;;;;1999.90;999.90;;;16.00;99.90;;;;;;5078109;27;20046;-79
2022/08/23 00:59:56;;;;;;;1999.90;999.90;;;16.00;99.90;;;;;;5156873;27;20046;-79
2022/08/23 01:02:22;;;;;;;1999.90;999.90;;;16.00;99.90;;;;;;5157077;27;20502;-78
2022/08/23 01:04:57;;;;;;;1999.90;999.90;;;16.00;99.90;;;;;;5157303;27;20086;-78
2022/08/23 01:07:53;;;;;;;1999.90;999.90;;;16.00;99.90;;;;;;5138752;27;20095;-78
2022/08/23 01:10:29;;;;;;;1999.90;999.90;;;16.00;99.90;;;;;;5157127;27;20039;-78
2022/08/23 01:13:03;;;;;;;1999.90;999.90;;;16.00;99.90;;;;;;5156319;27;20039;-78
2022/08/23 01:15:34;;;;;;;1999.90;999.90;;;15.90;99.90;;;;;;5138575;27;20099;-78
2022/08/23 01:18:04;;;;;;;1999.90;999.90;;;15.90;99.90;;;;;;5156537;27;20098;-80
2022/08/23 01:20:55;;;;;;;1999.90;999.90;;;15.90;99.90;;;;;;5156453;27;20448;-80
2022/08/23 01:23:47;;;;;;;1999.90;999.90;;;15.90;99.90;;;;;;5156824;27;20047;-90
2022/08/23 01:26:15;;;;;;;1999.90;999.90;;;15.90;99.90;;;;;;5120157;27;20278;-78
2022/08/23 01:28:42;;;;;;;1999.90;999.90;;;15.90;99.90;;;;;;5154792;27;20394;-78
2022/08/23 01:31:09;;;;;;;1999.90;999.90;;;15.80;99.90;;;;;;5156365;27;20082;-77
2022/08/23 01:33:39;;;;;;;1999.90;999.90;;;15.90;99.90;;;;;;5156640;27;20490;-78
2022/08/23 01:36:08;;;;;;;1999.90;999.90;;;15.80;99.90;;;;;;5156526;27;20162;-77
2022/08/23 01:38:33;;;;;;;1999.90;999.90;;;15.80;99.90;;;;;;5121842;27;20054;-78
2022/08/23 01:40:59;;;;;;;1999.90;999.90;;;15.80;99.90;;;;;;5158595;27;20039;-77
2022/08/23 01:43:25;;;;;;;1999.90;999.90;;;15.70;99.90;;;;;;5139627;27;20052;-78
2022/08/23 01:45:52;;;;;;;1999.90;999.90;;;15.70;99.90;;;;;;5157262;27;20089;-78
2022/08/23 01:48:19;;;;;;;1999.90;999.90;;;15.70;99.90;;;;;;5157165;27;20053;-77
2022/08/23 01:50:45;;;;;;;1999.90;999.90;;;15.70;99.90;;;;;;5157172;27;20295;-77
2022/08/23 01:53:12;;;;;;;1999.90;999.90;;;15.70;99.90;;;;;;5138479;27;20548;-79
2022/08/23 01:55:39;;;;;;;1999.90;999.90;;;15.70;99.90;;;;;;5138690;27;20394;-77
2022/08/23 01:58:06;;;;;;;1999.90;999.90;;;15.60;99.90;;;;;;5156995;27;20046;-77
2022/08/23 02:00:36;;;;;;;1999.90;999.90;;;15.60;99.90;;;;;;5157052;27;20372;-77
2022/08/23 02:03:03;;;;;;;1999.90;999.90;;;15.60;99.90;;;;;;5137045;27;20053;-77
2022/08/23 02:05:30;;;;;;;1999.90;999.90;;;15.60;99.90;;;;;;5156346;27;20491;-77
2022/08/23 02:08:59;;;;;;;1999.90;999.90;;;15.60;99.90;;;;;;5157952;27;20378;-78
2022/08/23 02:14:48;;;;;;;1999.90;999.90;;;15.60;99.90;;;;;;5113203;28;20111;-78
2022/08/23 02:21:04;;;;;;;1999.90;999.90;;;15.50;99.90;;;;;;5112845;28;20034;-78
2022/08/23 02:27:23;;;;;;;1999.90;999.90;;;15.50;99.90;;;;;;5112882;28;20128;-78
2022/08/23 02:41:16;;;;;;;1999.90;999.90;;;15.40;99.90;;;;;;5111965;27;20031;-78
2022/08/23 02:43:42;;;;;;;1999.90;999.90;;;15.30;99.90;;;;;;5095455;28;20094;-77
2022/08/23 02:46:08;;;;;;;1999.90;999.90;;;15.30;99.90;;;;;;5095491;28;20051;-78
2022/08/23 02:49:20;;;;;;;1999.90;999.90;;;15.30;99.90;;;;;;5138715;27;20087;-78
2022/08/23 02:55:45;;;;;;;1999.90;999.90;;;15.30;99.90;;;;;;5155883;27;20502;-77
2022/08/23 03:01:52;;;;;;;1999.90;999.90;;;15.20;99.90;;;;;;5154095;27;20098;-84
2022/08/23 03:04:17;;;;;;;1999.90;999.90;;;15.20;99.90;;;;;;5135640;27;20051;-83
2022/08/23 03:06:44;;;;;;;1999.90;999.90;;;15.20;99.90;;;;;;5118746;27;20045;-83
2022/08/23 03:09:10;;;;;;;1999.90;999.90;;;15.20;99.90;;;;;;5118470;27;20061;-83
2022/08/23 03:11:37;;;;;;;1999.90;999.90;;;15.20;99.90;;;;;;5118309;27;20050;-83
2022/08/23 03:14:03;;;;;;;1999.90;999.90;;;15.20;99.90;;;;;;5153589;27;20051;-84
2022/08/23 03:16:29;;;;;;;1999.90;999.90;;;15.20;99.90;;;;;;5135864;27;20046;-83
2022/08/23 03:18:55;;;;;;;1999.90;999.90;;;15.20;99.90;;;;;;5153356;27;20061;-84
2022/08/23 03:21:21;;;;;;;1999.90;999.90;;;15.10;99.90;;;;;;5153518;27;20066;-83
2022/08/23 03:23:47;;;;;;;1999.90;999.90;;;15.10;99.90;;;;;;5153905;27;20104;-83
2022/08/23 03:26:14;;;;;;;1999.90;999.90;;;15.00;99.90;;;;;;5134972;27;20316;-83
2022/08/23 03:28:41;;;;;;;1999.90;999.90;;;15.10;99.90;;;;;;5153405;27;20050;-83
2022/08/23 03:31:08;;;;;;;1999.90;999.90;;;15.20;99.90;;;;;;5135301;27;20051;-83
2022/08/23 03:33:34;;;;;;;1999.90;999.90;;;15.00;99.90;;;;;;5135236;27;20050;-84
2022/08/23 03:36:02;;;;;;;1999.90;999.90;;;15.00;99.90;;;;;;5134997;27;20050;-83
2022/08/23 03:38:28;;;;;;;1999.90;999.90;;;15.00;99.90;;;;;;5153883;27;20140;-83
2022/08/23 03:40:54;;;;;;;1999.90;999.90;;;15.00;99.90;;;;;;5117706;27;20133;-83
2022/08/23 03:43:20;;;;;;;1999.90;999.90;;;15.00;99.90;;;;;;5134962;27;20035;-83
2022/08/23 03:45:46;;;;;;;1999.90;999.90;;;15.00;99.90;;;;;;5153009;27;20039;-83
2022/08/23 03:48:12;;;;;;;1999.90;999.90;;;15.00;99.90;;;;;;5118430;27;20061;-84
2022/08/23 03:50:40;;;;;;;1999.90;999.90;;;15.00;99.90;;;;;;5153656;27;20398;-83
2022/08/23 03:53:06;;;;;;;1999.90;999.90;;;14.90;99.90;;;;;;5120602;27;20137;-83
2022/08/23 03:55:32;;;;;;;1999.90;999.90;;;14.90;99.90;;;;;;5156977;27;20135;-83
2022/08/23 03:57:58;;;;;;;1999.90;999.90;;;14.90;99.90;;;;;;5157202;27;20526;-84
2022/08/23 04:00:24;;;;;;;1999.90;999.90;;;14.90;99.90;;;;;;5157644;27;20329;-83
2022/08/23 04:02:50;;;;;;;1999.90;999.90;;;14.90;99.90;;;;;;5121977;27;20253;-83
2022/08/23 04:05:16;;;;;;;1999.90;999.90;;;14.90;99.90;;;;;;5138427;27;20103;-83
2022/08/23 04:07:42;;;;;;;1999.90;999.90;;;14.90;99.90;;;;;;5157746;27;20042;-82
2022/08/23 04:10:12;;;;;;;1999.90;999.90;;;14.90;99.90;;;;;;5157064;27;20062;-83
2022/08/23 04:12:38;;;;;;;1999.90;999.90;;;14.90;99.90;;;;;;5139349;27;20050;-83
2022/08/23 04:15:04;;;;;;;1999.90;999.90;;;14.90;99.90;;;;;;5157100;27;20689;-83
2022/08/23 04:17:30;;;;;;;1999.90;999.90;;;14.90;99.90;;;;;;5138457;27;20081;-83
2022/08/23 04:19:56;;;;;;;1999.90;999.90;;;14.90;99.90;;;;;;5157507;27;20082;-83
2022/08/23 04:22:22;;;;;;;1999.90;999.90;;;15.10;99.90;;;;;;5138849;27;20089;-83
2022/08/23 04:24:48;;;;;;;1999.90;999.90;;;15.00;99.90;;;;;;5138235;27;20060;-83
2022/08/23 04:27:13;;;;;;;1999.90;999.90;;;15.00;99.90;;;;;;5156445;27;20043;-83
2022/08/23 04:29:39;;;;;;;1999.90;999.90;;;15.00;99.90;;;;;;5157675;27;20047;-82
2022/08/23 04:32:07;;;;;;;1999.90;999.90;;;15.00;99.90;;;;;;5137909;27;20538;-83
2022/08/23 04:34:34;;;;;;;1999.90;999.90;;;15.00;99.90;;;;;;5155982;27;20062;-83
2022/08/23 04:37:00;;;;;;;1999.90;999.90;;;15.10;99.90;;;;;;5155890;27;20054;-83
2022/08/23 04:39:26;;;;;;;1999.90;999.90;;;15.10;99.90;;;;;;5138716;27;20046;-83
2022/08/23 04:44:48;;;;;;;1999.90;999.90;;;15.90;99.90;;;;;;5129118;27;20082;-84
2022/08/23 04:47:14;;;;;;;1999.90;986.53;;;15.20;99.90;;;;;;5155932;27;20049;-82
2022/08/23 04:49:39;;;;;;;1999.90;999.90;;;15.20;99.90;;;;;;5157034;27;20051;-82
2022/08/23 04:52:05;;;;;;;1999.90;999.90;;;15.20;99.90;;;;;;5155929;27;20046;-82
2022/08/23 04:54:31;;;;;;;1999.90;999.90;;;15.20;99.90;;;;;;5120741;27;20154;-82
2022/08/23 04:56:57;;;;;;;1999.90;999.90;;;16.90;99.90;;;;;;5156464;27;20072;-82
2022/08/23 04:59:23;;;;;;;1999.90;999.90;;;15.20;99.90;;;;;;5137091;27;20288;-82
2022/08/23 05:01:50;;;;;;;1999.90;999.90;;;15.30;99.90;;;;;;5156048;27;20308;-82
2022/08/23 05:04:16;;;;;;;1999.90;999.90;;;15.30;99.90;;;;;;5155683;27;20051;-81
2022/08/23 05:06:41;;;;;;;1999.90;969.03;;;15.40;99.90;;;;;;5156615;27;20050;-82
2022/08/23 05:09:07;;;;;;;1999.90;999.90;;;15.40;99.90;;;;;;5137784;27;20417;-82
2022/08/23 05:11:33;;;;;;;1999.90;999.90;;;15.40;99.90;;;;;;5155996;27;20078;-82
2022/08/23 05:13:59;;;;;;;1999.90;989.22;;;15.40;99.90;;;;;;5138040;27;20486;-82
2022/08/23 05:16:25;;;;;;;1999.90;991.80;;;15.40;99.90;;;;;;5137468;27;20096;-82
2022/08/23 05:18:51;;;;;;;1999.90;987.95;;;15.40;99.90;;;;;;5121068;27;20078;-82
2022/08/23 05:21:19;;;;;;;1999.90;999.90;;;15.40;99.90;;;;;;5156538;27;20047;-82
2022/08/23 05:23:45;;;;;;;1999.90;999.90;;;15.80;99.90;;;;;;5138309;27;20043;-81
2022/08/23 05:26:11;;;;;;;1999.90;982.85;;;15.40;99.90;;;;;;5156287;27;20069;-82
2022/08/23 05:28:41;;;;;;;1999.90;999.90;;;15.50;99.90;;;;;;5138135;27;20046;-82
2022/08/23 05:31:11;;;;;;;1999.90;999.90;;;15.50;99.90;;;;;;5156648;27;20399;-82
2022/08/23 05:33:38;;;;;;;1999.90;999.90;;;15.50;99.90;;;;;;5156044;27;20501;-82
2022/08/23 05:36:04;;;;;;;1999.90;999.90;;;15.50;99.90;;;;;;5155600;27;20042;-82
2022/08/23 05:38:30;;;;;;;1999.90;999.90;;;15.60;99.90;;;;;;5137881;27;20491;-82
2022/08/23 05:40:57;;;;;;;1999.90;999.90;;;15.60;99.90;;;;;;5137114;27;20038;-82
2022/08/23 05:43:24;;;;;;;1999.90;973.08;;;15.70;96.70;;;;;;5155376;27;20051;-82
2022/08/23 05:46:09;;;;;;;1999.90;999.90;;;15.80;60.60;;;;;;5120141;27;20050;-82
2022/08/23 05:48:36;;;;;;;1999.90;999.90;;;15.80;27.30;;;;;;5154987;27;20039;-83
2022/08/23 05:51:14;;;;;;;1999.90;999.90;;;15.80;1.00;;;;;;5136729;27;20395;-82
2022/08/23 05:53:41;;;;;;;1999.90;999.90;;;15.90;1.00;;;;;;5136570;27;20054;-82
2022/08/23 05:56:12;;;;;;;1999.90;999.90;;;15.90;1.00;;;;;;5136773;27;20035;-82
2022/08/23 05:58:38;;;;;;;1999.90;985.75;;;15.90;1.00;;;;;;5155157;27;20043;-83
2022/08/23 06:01:04;;;;;;;1999.90;999.90;;;16.10;1.00;;;;;;5155541;27;20050;-83
2022/08/23 06:03:29;;;;;;;1999.90;999.90;;;16.10;1.00;;;;;;5154762;27;20145;-82
2022/08/23 06:05:59;;;;;;;1999.90;999.53;;;16.20;1.00;;;;;;5137066;27;20118;-83
2022/08/23 06:08:25;;;;;;;1999.90;999.90;;;16.20;1.00;;;;;;5135413;27;20418;-82
2022/08/23 06:11:12;;;;;;;1999.90;994.65;;;16.30;1.00;;;;;;5135650;27;20046;-83
2022/08/23 06:13:40;;;;;;;1999.90;999.90;;;16.40;1.00;;;;;;5135632;27;20049;-83
2022/08/23 06:16:07;;;;;;;1999.90;999.90;;;16.40;1.00;;;;;;5153820;27;20051;-83
2022/08/23 06:18:33;;;;;;;1999.90;999.90;;;16.50;1.00;;;;;;5136011;27;20448;-83
2022/08/23 06:21:02;;;;;;;1999.90;999.90;;;16.60;1.00;;;;;;5101633;27;20047;-83
2022/08/23 06:23:31;;;;;;;1999.90;999.90;;;15.20;3.70;;;;;;5154561;27;20046;-83
2022/08/23 06:25:58;;;;;;;1999.90;999.90;;;16.80;25.00;;;;;;5136405;27;20505;-83
2022/08/23 06:28:24;;;;;;;1999.90;999.90;;;16.80;18.60;;;;;;5154045;27;20051;-83
2022/08/23 06:30:53;;;;;;;1999.90;999.90;;;16.90;97.70;;;;;;5154479;27;20098;-83
2022/08/23 06:33:19;;;;;;;1999.90;999.90;;;17.00;99.90;;;;;;5135776;27;20121;-83
2022/08/23 06:35:46;;;;;;;1999.90;999.90;;;17.10;99.90;;;;;;5154887;27;20034;-83
2022/08/23 06:38:12;;;;;;;1999.90;999.90;;;17.10;99.90;;;;;;5135957;27;20082;-83
2022/08/23 06:40:38;;;;;;;1999.90;999.90;;;17.40;99.90;;;;;;5153710;27;20077;-83
2022/08/23 06:43:04;;;;;;;1999.90;983.92;;;17.40;99.90;;;;;;5154139;27;20042;-83
2022/08/23 06:45:30;;;;;;;1999.90;999.90;;;16.20;99.90;;;;;;5153321;27;20098;-82
2022/08/23 06:47:56;;;;;;;1999.90;999.90;;;17.70;99.90;;;;;;5152969;27;20398;-83
2022/08/23 06:50:22;;;;;;;1999.90;999.90;;;17.90;99.90;;;;;;5154030;27;20046;-83
2022/08/23 06:52:48;;;;;;;1999.90;999.90;;;18.10;99.90;;;;;;5154062;27;20053;-83
2022/08/23 06:55:14;;;;;;;1999.90;999.90;;;18.20;99.90;;;;;;5118890;27;20073;-82
2022/08/23 06:57:40;;;;;;;1701.45;867.38;;;18.30;99.90;;;;;;5135005;27;20050;-83
2022/08/23 07:00:08;;;;;;;1999.90;999.90;;;18.50;95.00;;;;;;5119195;27;20047;-82
2022/08/23 07:02:34;;;;;;;1999.90;999.90;;;18.60;99.30;;;;;;5153335;27;20272;-84
2022/08/23 07:04:59;;;;;;;1999.90;999.90;;;18.70;74.00;;;;;;5153613;27;20086;-82
2022/08/23 07:07:25;;;;;;;1999.90;999.90;;;18.70;85.60;;;;;;5153168;27;20061;-83
2022/08/23 07:09:55;;;;;;;1999.90;971.05;;;18.90;1.90;;;;;;5135279;27;20042;-83
2022/08/23 07:12:24;;;;;;;1573.55;702.28;;;19.00;1.00;;;;;;5135080;27;20126;-83
2022/08/23 07:14:50;;;;;;;1842.43;673.00;;;19.10;1.00;;;;;;5134987;27;20559;-83
2022/08/23 07:17:16;;;;;;;1999.90;999.90;;;19.30;1.00;;;;;;5101289;27;20050;-82
2022/08/23 07:19:44;;;;;;;1999.90;799.70;;;19.00;1.00;;;;;;5117368;27;20383;-82
2022/08/23 07:22:10;;;;;;;1775.20;864.95;;;19.40;1.00;;;;;;5119118;27;20119;-81
2022/08/23 07:24:39;;;;;;;1628.53;813.22;;;19.50;1.00;;;;;;5118152;27;20246;-82
2022/08/23 07:27:08;;;;;;;841.33;339.92;;;19.70;99.90;;;;;;5099094;27;20386;-84
2022/08/23 07:29:36;;;;;;;1999.90;999.90;;;19.90;99.90;;;;;;5134502;27;20320;-83
2022/08/23 07:32:02;;;;;;;1999.90;999.90;;;20.40;99.90;;;;;;5153788;27;20046;-83
2022/08/23 07:34:28;;;;;;;1999.90;999.90;;;21.70;99.90;;;;;;5117965;27;20081;-83
2022/08/23 07:36:54;;;;;;;1565.53;798.00;;;23.20;99.90;;;;;;5153958;27;20138;-82
2022/08/23 07:39:22;;;;;;;1999.90;999.90;;;24.60;99.90;;;;;;5118544;27;20106;-84
2022/08/23 07:41:48;;;;;;;1999.90;999.90;;;26.00;99.90;;;;;;5153883;27;20394;-83
2022/08/23 07:44:14;;;;;;;1170.88;994.17;;;27.20;88.30;;;;;;5135028;27;20469;-83
2022/08/23 07:46:42;;;;;;;990.13;896.33;;;27.60;39.50;;;;;;5153734;27;20183;-83
2022/08/23 07:49:08;;;;;;;;;;;27.10;5.70;;;;;;5136197;27;20039;-83
2022/08/23 07:51:39;;;;;;;912.05;831.80;;;26.70;1.00;;;;;;5135454;27;20009;-83
2022/08/23 07:54:09;;;;;;;980.70;888.00;;;26.40;22.40;;;;;;5153402;27;20547;-83
2022/08/23 07:56:35;;;;;;;918.83;843.05;;;26.00;17.60;;;;;;5153373;27;20064;-82
2022/08/23 07:59:01;;;;;;;889.58;811.45;;;26.10;33.30;;;;;;5135554;27;20050;-83
2022/08/23 08:01:28;;;;;;;811.53;741.55;;;26.20;21.00;;;;;;5135261;27;20440;-83
2022/08/23 08:03:58;;;;;;;791.65;725.95;;;26.00;10.10;;;;;;5153507;27;20061;-83
2022/08/23 08:06:53;;;;;;;801.40;735.22;;;26.00;12.20;;;;;;5134536;27;20046;-83
2022/08/23 08:09:19;;;;;;;631.63;585.47;;;25.90;12.20;;;;;;5116967;27;20046;-84
2022/08/23 08:11:46;;;;;;;678.08;626.20;;;25.80;24.00;;;;;;5133333;27;20623;-84
2022/08/23 08:14:13;;;;;;;744.92;683.25;;;25.80;14.80;;;;;;5116828;27;20047;-84
2022/08/23 08:16:43;;;;;;;802.17;733.80;;;25.80;4.00;;;;;;5133907;27;20138;-84
2022/08/23 08:19:10;;;;;;;758.08;696.65;;;25.80;2.80;;;;;;5152361;27;20093;-84
2022/08/23 08:21:38;;;;;;;909.17;821.97;;;25.80;9.20;;;;;;5152609;27;20049;-84
2022/08/23 08:24:06;;;;;;;883.33;802.05;;;25.90;6.20;;;;;;5153657;27;20046;-84
2022/08/23 08:26:31;;;;;;;857.28;781.65;;;25.70;6.10;;;;;;5153047;27;20122;-84
2022/08/23 08:28:57;;;;;;;858.30;780.63;;;26.60;1.00;;;;;;5153825;27;20126;-83
2022/08/23 08:31:24;;;;;;;890.88;810.72;;;27.50;1.00;;;;;;5153641;27;20166;-83
2022/08/23 08:33:51;;;;;;;1999.90;999.90;;;28.50;1.00;;;;;;5135310;27;20129;-83
2022/08/23 08:36:48;;;;;;;1999.90;999.90;;;28.80;1.00;;;;;;5135461;27;20126;-83
2022/08/23 08:39:18;;;;;;;1999.90;999.90;;;29.90;1.00;;;;;;5138784;27;20134;-83
2022/08/23 08:42:03;;;;;;;1999.90;999.90;;;30.60;1.00;;;;;;5138198;27;20517;-84
2022/08/23 08:44:35;;;;;;;1999.90;999.90;;;31.70;1.00;;;;;;5157491;27;20103;-84
2022/08/23 08:47:26;;;;;;;1999.90;999.90;;;32.70;1.00;;;;;;5157304;27;20043;-84
2022/08/23 08:49:59;;;;;;;1999.90;999.90;;;33.00;1.00;;;;;;5103769;27;20050;-84
2022/08/23 08:52:43;;;;;;;1999.90;999.90;;;32.00;1.00;;;;;;5138449;27;20134;-84
2022/08/23 08:55:16;;;;;;;1999.90;999.90;;;31.70;1.00;;;;;;5138749;27;20055;-84
2022/08/23 08:57:45;;;;;;;1999.90;999.90;;;31.10;1.00;;;;;;5138326;27;20397;-84
2022/08/23 09:00:19;;;;;;;1999.90;999.90;;;30.80;1.00;;;;;;5156846;27;20042;-84
2022/08/23 09:02:45;;;;;;;1999.90;999.90;;;31.00;1.00;;;;;;5138315;27;20098;-84
2022/08/23 09:05:33;;;;;;;1999.90;999.90;;;32.10;1.00;;;;;;5156955;27;20060;-84
2022/08/23 09:08:54;;;;;;;1999.90;999.90;;;33.70;1.00;;;;;;5138121;27;20097;-84
2022/08/23 09:11:21;;;;;;;1999.90;999.90;;;33.80;1.00;;;;;;5098160;27;20043;-84
2022/08/23 09:13:58;;;;;;;1999.90;999.90;;;33.20;1.00;;;;;;5138346;27;20047;-84
2022/08/23 09:16:59;;;;;;;1999.90;999.90;;;32.30;1.00;;;;;;5157268;27;20272;-84
2022/08/23 09:19:25;;;;;;;1999.90;999.90;;;32.10;1.00;;;;;;5138363;27;20483;-84
2022/08/23 09:22:01;;;;;;;1999.90;999.90;;;32.40;1.00;;;;;;5137824;27;20091;-84
2022/08/23 09:24:28;;;;;;;1999.90;999.90;;;33.10;1.00;;;;;;5121380;27;20053;-84
2022/08/23 09:26:55;;;;;;;1999.90;999.90;;;34.20;1.00;;;;;;5120246;27;20050;-84
2022/08/23 09:29:23;;;;;;;1999.90;999.90;;;34.80;1.00;;;;;;5121176;27;20035;-83
2022/08/23 09:32:01;;;;;;;1999.90;999.90;;;34.80;1.00;;;;;;5137762;27;20054;-84
2022/08/23 09:34:36;;;;;;;1999.90;999.90;;;34.60;1.00;;;;;;5137903;27;20488;-84
2022/08/23 09:37:10;;;;;;;1999.90;999.90;;;34.60;1.00;;;;;;5138172;27;20050;-84
2022/08/23 09:39:46;;;;;;;1999.90;999.90;;;34.40;1.00;;;;;;5120636;27;20364;-83
2022/08/23 09:42:46;;;;;;;911.45;820.80;;;34.30;1.00;;;;;;5156265;27;20042;-84
2022/08/23 09:45:28;;;;;;;1999.90;999.90;;;33.90;1.00;;;;;;5066959;27;20073;-84
2022/08/23 09:47:54;;;;;;;1999.90;999.90;;;34.30;1.00;;;;;;5137207;27;20398;-84
2022/08/23 09:50:28;;;;;;;1999.90;999.90;;;34.60;1.00;;;;;;5119758;27;20043;-83
2022/08/23 09:53:01;;;;;;;1999.90;999.90;;;34.50;1.00;;;;;;5137658;27;20039;-84
2022/08/23 09:55:35;;;;;;;1999.90;999.90;;;33.70;1.00;;;;;;5137697;27;20051;-84
2022/08/23 09:58:05;;;;;;;1999.90;999.90;;;33.10;1.00;;;;;;5155851;27;20047;-83
2022/08/23 10:00:36;;;;;;;1999.90;999.90;;;32.40;1.00;;;;;;5156043;27;20043;-84
2022/08/23 10:03:25;;;;;;;1999.90;999.90;;;32.70;1.00;;;;;;5137432;27;20118;-84
2022/08/23 10:05:59;;;;;;;1999.90;999.90;;;33.50;1.00;;;;;;5137189;27;20082;-83
2022/08/23 10:08:51;;;;;;;1999.90;999.90;;;34.20;1.00;;;;;;5137487;27;20046;-83
2022/08/23 10:11:24;;;;;;;1999.90;999.90;;;34.20;1.00;;;;;;5124024;27;20062;-84
2022/08/23 10:13:51;;;;;;;1080.60;769.30;;;35.20;1.00;;;;;;5136939;27;20489;-83
2022/08/23 10:16:51;;;;;;;1999.90;999.90;;;35.40;99.90;;;;;;5120519;27;20043;-83
2022/08/23 10:19:35;;;;;;;742.10;662.40;;;36.20;99.90;;;;;;5137186;27;20106;-84
2022/08/23 10:22:11;;;;;;;674.75;561.70;;;36.30;99.90;;;;;;5155375;27;20106;-84
2022/08/23 10:25:01;;;;;;;850.17;780.92;;;36.70;99.90;;;;;;5155782;27;20043;-85
2022/08/23 10:31:08;;;;;;;1462.20;912.15;;;36.30;99.90;;;;;;5137380;27;20050;-84
2022/08/23 10:33:56;;;;;;;1032.50;931.75;;;37.20;99.90;;;;;;5119885;27;20038;-84
2022/08/23 10:36:44;;;;;;;836.47;765.97;;;37.60;99.90;;;;;;5155587;27;20398;-84
2022/08/23 10:39:26;;;;;;;702.15;647.08;;;37.60;99.90;;;;;;5089990;27;20138;-81
2022/08/23 10:42:10;;;;;;;772.00;707.83;;;37.50;99.90;;;;;;5154799;27;20042;-82
2022/08/23 10:45:08;;;;;;;706.28;649.97;;;37.00;99.90;;;;;;5156032;27;20082;-82
2022/08/23 10:47:40;;;;;;;880.78;797.00;;;36.10;99.90;;;;;;5102961;27;20058;-81
2022/08/23 10:50:13;;;;;;;1467.40;920.90;;;36.20;99.90;;;;;;5156921;27;20035;-82
2022/08/23 10:52:56;;;;;;;1081.95;971.08;;;36.50;99.90;;;;;;5141674;27;20051;-82
2022/08/23 10:55:35;;;;;;;1091.97;983.10;;;36.80;99.90;;;;;;5142314;27;20046;-82
2022/08/23 10:58:09;;;;;;;963.03;862.80;;;37.10;99.90;;;;;;5137385;27;20049;-82
2022/08/23 11:00:37;;;;;;;869.65;786.50;;;37.60;99.90;;;;;;5156032;27;20047;-81
2022/08/23 11:03:27;;;;;;;1999.90;999.90;;;37.20;99.90;;;;;;5120344;27;20061;-82
2022/08/23 11:06:25;;;;;;;1999.90;999.90;;;37.80;99.90;;;;;;5136503;27;20057;-81
2022/08/23 11:09:03;;;;;;;1493.40;941.13;;;37.30;99.90;;;;;;5102252;27;20050;-81
2022/08/23 11:12:00;;;;;;;1999.90;999.90;;;37.50;99.90;;;;;;5136054;27;20050;-82
2022/08/23 11:14:39;;;;;;;1999.90;999.90;;;38.30;99.90;;;;;;5154628;27;20046;-81
2022/08/23 11:17:22;;;;;;;1195.55;844.13;;;39.30;99.90;;;;;;5135690;27;20418;-83
2022/08/23 11:20:02;;;;;;;1009.42;911.25;;;39.50;99.90;;;;;;5135893;27;20050;-84
2022/08/23 11:22:52;;;;;;;1036.50;927.25;;;39.30;99.90;;;;;;5154434;27;20093;-83
2022/08/23 11:25:18;;;;;;;766.90;702.78;;;39.50;99.90;;;;;;5153861;27;20042;-84
2022/08/23 11:27:44;;;;;;;614.88;564.90;;;39.30;99.90;;;;;;5135326;27;20054;-83
2022/08/23 11:30:31;;;;;;;525.58;487.55;;;39.60;99.90;;;;;;5119157;27;20098;-83
2022/08/23 11:33:23;;;;;;;833.70;761.63;;;39.80;99.90;;;;;;5135500;27;20058;-83
2022/08/23 11:35:54;;;;;;;530.47;489.38;;;40.10;99.90;;;;;;5153852;27;20076;-83
2022/08/23 11:38:42;;;;;;;346.77;323.13;;;39.70;99.90;;;;;;5154192;27;20045;-84
2022/08/23 11:41:14;;;;;;;414.17;384.92;;;39.30;99.90;;;;;;5154051;27;20129;-83
2022/08/23 11:43:42;;;;;;;1432.43;892.97;;;38.50;99.90;;;;;;5153928;27;20055;-83
2022/08/23 11:46:30;;;;;;;755.00;693.55;;;39.10;99.90;;;;;;5135822;27;20425;-83
2022/08/23 11:49:12;;;;;;;771.05;703.63;;;39.80;99.90;;;;;;5135633;27;20099;-83
2022/08/23 11:52:04;;;;;;;613.78;557.85;;;40.10;99.90;;;;;;5118636;27;20086;-83
2022/08/23 11:54:39;;;;;;;644.13;591.58;;;40.40;99.90;;;;;;5135957;27;20073;-83
2022/08/23 11:57:27;;;;;;;478.77;445.08;;;40.50;99.90;;;;;;5118044;27;20130;-84
2022/08/23 12:00:13;;;;;;;453.83;421.23;;;40.00;99.90;;;;;;5135339;27;20049;-84
2022/08/23 12:03:00;;;;;;;562.65;518.83;;;39.40;99.90;;;;;;5135522;27;20049;-83
2022/08/23 12:05:41;;;;;;;484.45;452.50;;;38.20;99.90;;;;;;5135453;27;20051;-84
2022/08/23 12:08:07;;;;;;;802.92;735.35;;;38.80;99.90;;;;;;5153619;27;20057;-84
2022/08/23 12:10:42;;;;;;;606.77;558.57;;;39.10;99.90;;;;;;5135564;27;20046;-82
2022/08/23 12:13:20;;;;;;;870.28;787.60;;;38.90;99.90;;;;;;5136509;27;20043;-81
2022/08/23 12:16:04;;;;;;;816.60;747.70;;;38.40;99.90;;;;;;5122242;27;20612;-84
2022/08/23 12:18:47;;;;;;;920.15;834.25;;;37.20;99.90;;;;;;5139393;27;20082;-81
2022/08/23 12:21:26;;;;;;;1999.90;999.90;;;36.20;99.90;;;;;;5157879;27;20057;-81
2022/08/23 12:24:15;;;;;;;1999.90;999.90;;;35.70;99.90;;;;;;5139268;27;20072;-81
2022/08/23 12:26:48;;;;;;;1502.57;939.17;;;35.40;99.90;;;;;;5157331;27;20048;-84
2022/08/23 12:29:31;;;;;;;1999.90;999.90;;;34.90;99.90;;;;;;5139542;27;20391;-81
2022/08/23 12:32:14;;;;;;;1999.90;999.90;;;34.40;99.90;;;;;;5139200;27;20089;-83
2022/08/23 12:35:07;;;;;;;1999.90;999.90;;;34.50;99.90;;;;;;5140610;27;20043;-82
2022/08/23 12:37:54;;;;;;;1999.90;999.90;;;34.20;99.90;;;;;;5139149;27;20043;-81
2022/08/23 12:40:49;;;;;;;1999.90;999.90;;;33.50;99.90;;;;;;5157502;27;20496;-82
2022/08/23 12:43:20;;;;;;;1999.90;999.90;;;33.60;99.90;;;;;;5154854;27;20162;-82
2022/08/23 12:45:50;;;;;;;1999.90;999.90;;;33.50;99.90;;;;;;5138748;27;20050;-82
2022/08/23 12:48:20;;;;;;;1999.90;999.90;;;33.20;99.90;;;;;;5157347;27;20081;-83
2022/08/23 12:51:00;;;;;;;1999.90;999.90;;;32.90;99.90;;;;;;5139070;27;20050;-81
2022/08/23 12:53:35;;;;;;;1999.90;999.90;;;32.80;99.90;;;;;;5121903;27;20054;-81
2022/08/23 12:56:26;;;;;;;1999.90;999.90;;;33.00;99.90;;;;;;5156811;27;20046;-82
2022/08/23 12:59:02;;;;;;;1999.90;999.90;;;32.50;99.90;;;;;;5120438;27;20495;-82
2022/08/23 13:01:32;;;;;;;1999.90;999.90;;;32.50;99.90;;;;;;5121668;27;20054;-82
2022/08/23 13:03:59;;;;;;;1999.90;999.90;;;32.10;99.90;;;;;;5156332;27;20054;-82
2022/08/23 13:06:40;;;;;;;1999.90;999.90;;;32.00;99.90;;;;;;5156903;27;20055;-82
2022/08/23 13:09:26;;;;;;;1999.90;999.90;;;32.00;99.90;;;;;;5138113;27;20054;-82
2022/08/23 13:11:52;;;;;;;1999.90;999.90;;;32.30;99.90;;;;;;5137289;27;20051;-84
2022/08/23 13:14:43;;;;;;;1999.90;999.90;;;32.00;99.90;;;;;;5156999;27;20043;-82
2022/08/23 13:17:37;;;;;;;1999.90;999.90;;;31.80;99.90;;;;;;5144492;27;20050;-82
2022/08/23 13:20:06;;;;;;;1999.90;999.90;;;31.90;99.90;;;;;;5138294;27;20042;-82
2022/08/23 13:22:33;;;;;;;1999.90;999.90;;;32.30;99.90;;;;;;5138451;27;20152;-81
2022/08/23 13:25:05;;;;;;;1999.90;999.90;;;32.50;99.90;;;;;;5156062;27;20042;-82
2022/08/23 13:27:31;;;;;;;1999.90;999.90;;;32.30;99.90;;;;;;5156366;27;20042;-82
2022/08/23 13:30:20;;;;;;;1999.90;999.90;;;32.30;99.90;;;;;;5156256;27;20053;-82
2022/08/23 13:32:50;;;;;;;1999.90;999.90;;;32.40;99.90;;;;;;5121064;27;20051;-82
2022/08/23 13:35:36;;;;;;;1999.90;999.90;;;32.30;99.90;;;;;;5137504;27;20470;-81